Time;durP1;ratioP1;P1;durP2;ratioP2;P2;SDS_P1;SDS_P2;PMS_P1;PMS_P2;Temp;Humidity;BMP_temperature;BMP_pressure;BME280_temperature;BME280_humidity;BME280_pressure;Samples;Min_cycle;Max_cycle;Signal;HPM_P1;HPM_P2
2021/03/10 00:01:34;;;;;;;27.35;23.02;;;2.50;68.60;;;;;;5037184;29;20153;-68
2021/03/10 00:04:06;;;;;;;29.38;23.85;;;2.50;68.40;;;;;;5022218;29;20534;-68
2021/03/10 00:06:37;;;;;;;27.40;23.42;;;2.50;67.90;;;;;;5038102;29;20585;-68
2021/03/10 00:09:09;;;;;;;27.98;22.58;;;2.60;67.30;;;;;;5038741;29;20049;-68
2021/03/10 00:11:41;;;;;;;26.52;22.38;;;2.60;67.30;;;;;;5038569;29;20574;-66
2021/03/10 00:14:12;;;;;;;29.52;23.83;;;2.60;67.20;;;;;;5022683;29;20053;-68
2021/03/10 00:16:43;;;;;;;28.27;22.80;;;2.70;67.90;;;;;;5037334;29;20069;-68
2021/03/10 00:19:15;;;;;;;27.08;22.70;;;2.70;67.70;;;;;;5023331;29;20048;-68
2021/03/10 00:21:47;;;;;;;25.33;22.52;;;2.70;67.80;;;;;;5038564;29;20140;-67
2021/03/10 00:24:19;;;;;;;28.70;22.80;;;2.60;67.50;;;;;;5040340;29;20053;-67
2021/03/10 00:26:50;;;;;;;27.75;23.30;;;2.70;67.70;;;;;;5037800;29;20132;-67
2021/03/10 00:29:21;;;;;;;25.40;22.00;;;2.70;67.90;;;;;;5039202;29;20818;-66
2021/03/10 00:31:53;;;;;;;26.67;23.25;;;2.60;67.60;;;;;;5038243;29;20057;-68
2021/03/10 00:34:25;;;;;;;25.83;21.60;;;2.60;67.40;;;;;;5038741;29;20841;-67
2021/03/10 00:36:56;;;;;;;28.73;22.77;;;2.60;67.90;;;;;;5037472;29;20053;-67
2021/03/10 00:39:28;;;;;;;24.73;21.92;;;2.60;68.00;;;;;;5038747;29;20131;-67
2021/03/10 00:41:59;;;;;;;26.05;22.40;;;2.60;68.00;;;;;;5039953;29;20132;-68
2021/03/10 00:44:30;;;;;;;28.05;22.23;;;2.60;67.70;;;;;;5049440;29;20095;-68
2021/03/10 00:47:02;;;;;;;28.50;22.45;;;2.60;67.80;;;;;;5037840;29;20108;-68
2021/03/10 00:49:35;;;;;;;26.33;22.17;;;2.60;68.10;;;;;;5040704;29;20105;-68
2021/03/10 00:52:07;;;;;;;27.58;22.65;;;2.60;67.50;;;;;;5038341;29;20530;-69
2021/03/10 00:54:40;;;;;;;26.42;21.42;;;2.60;67.70;;;;;;5038518;29;20109;-69
2021/03/10 00:57:12;;;;;;;26.73;22.63;;;2.60;67.70;;;;;;5037773;29;20049;-70
2021/03/10 00:59:43;;;;;;;25.70;22.67;;;2.70;67.70;;;;;;5018307;29;20547;-68
2021/03/10 01:02:15;;;;;;;27.35;23.13;;;2.60;67.40;;;;;;5017050;29;20041;-68
2021/03/10 01:04:47;;;;;;;28.58;23.38;;;2.60;68.30;;;;;;5017936;29;20067;-68
2021/03/10 01:07:18;;;;;;;26.58;23.73;;;2.60;68.20;;;;;;5017765;29;20045;-67
2021/03/10 01:09:49;;;;;;;27.17;23.58;;;2.60;68.30;;;;;;5017823;29;20053;-68
2021/03/10 01:12:21;;;;;;;26.58;23.10;;;2.70;68.50;;;;;;5018657;29;20076;-67
2021/03/10 01:14:52;;;;;;;29.63;24.08;;;2.60;68.50;;;;;;5017956;29;20088;-67
2021/03/10 01:17:24;;;;;;;29.00;23.92;;;2.60;68.30;;;;;;5017621;29;20048;-67
2021/03/10 01:19:56;;;;;;;26.73;22.83;;;2.70;68.20;;;;;;5018266;29;20785;-67
2021/03/10 01:22:27;;;;;;;30.00;24.70;;;2.70;69.00;;;;;;5018250;29;20144;-67
2021/03/10 01:24:58;;;;;;;27.65;23.40;;;2.70;68.90;;;;;;5017736;29;20041;-70
2021/03/10 01:27:30;;;;;;;29.08;23.98;;;2.70;68.80;;;;;;5017001;29;20059;-68
2021/03/10 01:30:07;;;;;;;29.88;24.55;;;2.80;68.70;;;;;;5002505;29;20068;-69
2021/03/10 01:32:38;;;;;;;29.55;25.00;;;2.80;68.60;;;;;;5017731;29;20061;-68
2021/03/10 01:35:11;;;;;;;29.23;24.88;;;2.80;68.80;;;;;;5018455;29;20574;-68
2021/03/10 01:37:43;;;;;;;29.90;24.60;;;2.90;69.40;;;;;;5016846;29;20049;-67
2021/03/10 01:40:16;;;;;;;31.67;26.52;;;2.80;69.60;;;;;;5018611;29;20120;-67
2021/03/10 01:42:48;;;;;;;30.13;25.20;;;2.80;70.60;;;;;;5021041;29;20437;-69
2021/03/10 01:45:19;;;;;;;30.08;25.75;;;2.80;70.10;;;;;;5018932;29;20357;-67
2021/03/10 01:47:51;;;;;;;30.77;25.58;;;2.80;70.30;;;;;;5018797;29;20045;-68
2021/03/10 01:50:25;;;;;;;31.92;26.27;;;2.70;70.60;;;;;;5017236;29;20053;-67
2021/03/10 01:52:57;;;;;;;34.40;26.45;;;2.80;70.50;;;;;;5019008;29;20074;-67
2021/03/10 01:55:30;;;;;;;31.08;26.85;;;2.80;70.90;;;;;;5018845;29;20065;-67
2021/03/10 01:58:01;;;;;;;32.05;26.60;;;2.80;70.80;;;;;;5024028;29;20424;-68
2021/03/10 02:00:33;;;;;;;38.53;28.60;;;2.70;71.10;;;;;;5037004;29;20045;-66
2021/03/10 02:03:05;;;;;;;31.75;26.23;;;2.70;72.10;;;;;;5038210;29;20052;-67
2021/03/10 02:05:37;;;;;;;30.08;25.17;;;2.70;70.90;;;;;;5036612;29;20053;-67
2021/03/10 02:08:21;;;;;;;33.92;26.15;;;2.70;71.20;;;;;;5037731;29;20067;-66
2021/03/10 02:11:11;;;;;;;31.75;27.30;;;2.70;71.50;;;;;;5036957;29;20088;-67
2021/03/10 02:13:50;;;;;;;31.80;26.13;;;2.80;72.30;;;;;;5037318;29;20144;-67
2021/03/10 02:16:42;;;;;;;33.70;28.38;;;2.70;73.00;;;;;;5012814;29;20741;-68
2021/03/10 02:19:28;;;;;;;32.80;27.05;;;2.60;72.50;;;;;;5036519;29;20060;-67
2021/03/10 02:22:42;;;;;;;31.40;26.45;;;2.60;72.50;;;;;;5036851;29;20694;-67
2021/03/10 02:25:37;;;;;;;32.83;25.75;;;2.60;72.50;;;;;;5006492;29;20072;-68
2021/03/10 02:28:10;;;;;;;32.25;26.63;;;2.60;72.50;;;;;;5037670;29;20048;-68
2021/03/10 02:30:45;;;;;;;37.95;27.27;;;2.50;73.40;;;;;;5036016;29;20057;-67
2021/03/10 02:33:21;;;;;;;30.92;25.83;;;2.50;73.40;;;;;;5036502;29;20496;-67
2021/03/10 02:36:03;;;;;;;34.42;27.60;;;2.40;74.50;;;;;;5034498;29;20056;-69
2021/03/10 02:38:38;;;;;;;35.70;28.20;;;2.30;75.90;;;;;;5037450;29;20060;-67
2021/03/10 02:41:10;;;;;;;36.47;27.98;;;2.10;76.70;;;;;;5037914;29;20045;-66
2021/03/10 02:43:43;;;;;;;33.75;27.60;;;2.10;77.00;;;;;;5036788;29;20480;-68
2021/03/10 02:46:16;;;;;;;36.00;28.85;;;2.00;75.90;;;;;;5038512;29;20077;-68
2021/03/10 02:48:50;;;;;;;33.53;27.60;;;2.10;76.70;;;;;;5015056;29;20149;-67
2021/03/10 02:51:22;;;;;;;33.10;27.13;;;2.00;76.30;;;;;;5038321;29;20059;-68
2021/03/10 02:53:55;;;;;;;35.85;26.42;;;2.10;76.00;;;;;;5037325;29;20064;-67
2021/03/10 02:56:27;;;;;;;32.05;26.58;;;2.10;76.60;;;;;;5035826;29;20156;-67
2021/03/10 02:58:59;;;;;;;34.00;26.70;;;2.10;76.00;;;;;;5037166;29;20045;-68
2021/03/10 03:01:30;;;;;;;32.63;25.25;;;2.10;75.20;;;;;;5036482;29;20072;-69
2021/03/10 03:04:03;;;;;;;31.85;27.10;;;2.10;74.70;;;;;;5037148;29;20056;-68
2021/03/10 03:06:34;;;;;;;31.17;25.13;;;2.20;74.20;;;;;;5034625;29;20057;-67
2021/03/10 03:09:06;;;;;;;32.20;25.58;;;2.30;74.30;;;;;;5020310;29;20056;-69
2021/03/10 03:11:37;;;;;;;31.83;26.73;;;2.30;74.10;;;;;;5036235;29;20535;-67
2021/03/10 03:14:10;;;;;;;32.88;26.13;;;2.40;74.30;;;;;;5036913;29;20100;-68
2021/03/10 03:16:43;;;;;;;30.48;26.27;;;2.40;73.50;;;;;;5035883;29;20076;-67
2021/03/10 03:19:15;;;;;;;30.35;24.88;;;2.40;74.10;;;;;;5035559;29;20064;-68
2021/03/10 03:21:47;;;;;;;32.28;26.02;;;2.40;73.30;;;;;;5036423;29;20105;-67
2021/03/10 03:24:19;;;;;;;33.55;26.67;;;2.40;73.40;;;;;;5032255;29;20049;-68
2021/03/10 03:26:51;;;;;;;31.77;26.23;;;2.40;74.30;;;;;;5037168;29;21016;-67
2021/03/10 03:29:25;;;;;;;31.98;25.23;;;2.30;74.40;;;;;;5039510;29;20060;-68
2021/03/10 03:31:58;;;;;;;30.83;25.48;;;2.40;74.00;;;;;;5039833;29;20136;-68
2021/03/10 03:34:31;;;;;;;34.40;26.80;;;2.30;74.10;;;;;;5040717;29;20049;-68
2021/03/10 03:37:03;;;;;;;32.70;26.25;;;2.40;74.10;;;;;;5038707;29;20052;-68
2021/03/10 03:39:34;;;;;;;36.75;26.65;;;2.40;73.60;;;;;;5023718;29;20053;-68
2021/03/10 03:42:05;;;;;;;28.77;24.08;;;2.40;74.20;;;;;;5040665;29;20076;-68
2021/03/10 03:44:38;;;;;;;28.63;24.85;;;2.50;73.60;;;;;;5040959;29;20048;-68
2021/03/10 03:47:13;;;;;;;32.85;25.67;;;2.50;73.20;;;;;;5039688;29;20045;-67
2021/03/10 03:49:46;;;;;;;30.00;24.38;;;2.50;74.40;;;;;;5040396;29;20751;-66
2021/03/10 03:52:19;;;;;;;30.73;24.98;;;2.50;73.80;;;;;;5014774;29;20500;-67
2021/03/10 03:54:50;;;;;;;32.72;25.80;;;2.50;73.80;;;;;;5040395;29;20053;-67
2021/03/10 03:57:21;;;;;;;32.60;25.58;;;2.40;73.60;;;;;;5022236;29;20253;-67
2021/03/10 03:59:53;;;;;;;32.83;26.38;;;2.50;73.70;;;;;;5039932;29;20132;-66
2021/03/10 04:02:24;;;;;;;32.20;25.20;;;2.50;73.60;;;;;;5040178;29;20041;-67
2021/03/10 04:04:56;;;;;;;32.15;25.70;;;2.50;73.60;;;;;;5023951;29;20077;-67
2021/03/10 04:07:27;;;;;;;31.20;25.42;;;2.50;73.80;;;;;;5039666;29;20112;-68
2021/03/10 04:09:58;;;;;;;31.40;26.58;;;2.60;73.50;;;;;;5040528;29;20049;-67
2021/03/10 04:12:30;;;;;;;32.00;26.70;;;2.60;73.30;;;;;;5040148;29;20053;-65
2021/03/10 04:15:02;;;;;;;34.10;26.65;;;2.60;74.00;;;;;;5024414;29;20138;-66
2021/03/10 04:17:33;;;;;;;33.55;26.05;;;2.50;73.90;;;;;;5040063;29;20730;-66
2021/03/10 04:20:13;;;;;;;33.08;26.92;;;2.60;73.80;;;;;;5039003;29;20044;-65
2021/03/10 04:22:45;;;;;;;32.78;25.70;;;2.60;73.60;;;;;;5038148;29;20068;-65
2021/03/10 04:25:17;;;;;;;33.15;26.80;;;2.50;74.00;;;;;;5038954;29;20065;-66
2021/03/10 04:27:49;;;;;;;31.02;25.98;;;2.50;74.00;;;;;;5040331;29;20798;-65
2021/03/10 04:30:21;;;;;;;32.38;26.63;;;2.50;74.00;;;;;;5022012;29;20528;-65
2021/03/10 04:32:52;;;;;;;32.88;25.75;;;2.50;74.10;;;;;;5041749;29;20113;-65
2021/03/10 04:35:24;;;;;;;34.78;26.70;;;2.50;73.80;;;;;;5038191;29;20053;-64
2021/03/10 04:37:56;;;;;;;31.67;26.33;;;2.50;73.90;;;;;;5040312;29;20045;-64
2021/03/10 04:40:27;;;;;;;30.02;25.17;;;2.40;74.20;;;;;;5038521;29;20156;-66
2021/03/10 04:42:59;;;;;;;33.75;27.50;;;2.30;74.50;;;;;;5038860;29;20065;-64
2021/03/10 04:45:30;;;;;;;33.78;26.63;;;2.30;74.70;;;;;;5039359;29;20140;-65
2021/03/10 04:48:02;;;;;;;32.17;26.17;;;2.20;74.90;;;;;;5040464;29;20053;-65
2021/03/10 04:50:33;;;;;;;31.95;26.45;;;2.10;75.40;;;;;;5039009;29;20052;-65
2021/03/10 04:53:05;;;;;;;31.65;25.90;;;2.00;75.60;;;;;;5038938;29;20666;-65
2021/03/10 04:55:36;;;;;;;37.08;27.45;;;2.10;75.50;;;;;;5033604;29;20079;-64
2021/03/10 04:58:17;;;;;;;30.52;23.77;;;2.10;75.20;;;;;;5046566;29;20040;-65
2021/03/10 05:00:48;;;;;;;31.48;25.23;;;2.10;75.00;;;;;;5010863;29;20073;-65
2021/03/10 05:03:20;;;;;;;33.28;24.90;;;2.10;75.10;;;;;;5037193;29;20538;-64
2021/03/10 05:05:51;;;;;;;29.42;23.52;;;2.20;74.90;;;;;;5037651;29;20064;-65
2021/03/10 05:08:22;;;;;;;30.17;24.20;;;2.30;74.00;;;;;;5038630;29;20195;-65
2021/03/10 05:10:54;;;;;;;29.67;24.90;;;2.30;74.00;;;;;;5019795;29;20071;-65
2021/03/10 05:13:25;;;;;;;28.98;24.45;;;2.30;74.10;;;;;;5037268;29;20124;-65
2021/03/10 05:15:56;;;;;;;29.15;23.25;;;2.30;74.20;;;;;;5037537;29;20045;-64
2021/03/10 05:18:28;;;;;;;29.15;23.77;;;2.40;74.00;;;;;;5037127;29;20037;-64
2021/03/10 05:21:00;;;;;;;29.65;24.05;;;2.30;73.40;;;;;;5024460;29;20045;-64
2021/03/10 05:23:31;;;;;;;28.67;23.65;;;2.30;73.40;;;;;;5037995;29;20061;-64
2021/03/10 05:26:03;;;;;;;30.65;22.88;;;2.30;74.40;;;;;;5038262;29;20124;-64
2021/03/10 05:28:34;;;;;;;28.33;23.17;;;2.30;74.30;;;;;;5039204;29;20061;-63
2021/03/10 05:31:06;;;;;;;28.45;22.60;;;2.30;74.40;;;;;;5038577;29;20113;-64
2021/03/10 05:33:37;;;;;;;27.58;22.75;;;2.30;74.20;;;;;;5038957;29;20061;-64
2021/03/10 05:36:09;;;;;;;30.73;24.08;;;2.30;74.60;;;;;;5038943;29;20049;-63
2021/03/10 05:38:40;;;;;;;30.33;23.20;;;2.30;75.00;;;;;;5039242;29;20073;-65
2021/03/10 05:41:11;;;;;;;30.85;23.67;;;2.20;75.20;;;;;;5038587;29;20068;-65
2021/03/10 05:43:43;;;;;;;30.35;23.05;;;2.20;75.20;;;;;;5038682;29;20093;-66
2021/03/10 05:46:15;;;;;;;29.88;23.42;;;2.20;75.50;;;;;;5038936;29;20097;-65
2021/03/10 05:48:47;;;;;;;31.50;24.48;;;2.10;75.70;;;;;;5037328;29;21191;-67
2021/03/10 05:51:19;;;;;;;31.60;23.90;;;2.00;76.00;;;;;;5038259;29;20049;-67
2021/03/10 05:53:52;;;;;;;29.90;23.40;;;2.00;75.90;;;;;;5019011;29;20084;-68
2021/03/10 05:56:25;;;;;;;28.83;22.52;;;2.00;75.80;;;;;;5037760;29;20128;-68
2021/03/10 05:58:57;;;;;;;30.88;24.20;;;1.80;76.20;;;;;;5037434;29;20069;-67
2021/03/10 06:01:29;;;;;;;31.48;24.17;;;1.80;76.30;;;;;;5020451;29;20097;-67
2021/03/10 06:04:03;;;;;;;30.33;24.02;;;1.80;76.20;;;;;;5017202;29;20060;-66
2021/03/10 06:06:39;;;;;;;31.42;24.55;;;1.90;75.70;;;;;;5035913;29;20918;-67
2021/03/10 06:09:14;;;;;;;32.28;24.92;;;2.00;75.70;;;;;;5021002;29;20049;-66
2021/03/10 06:11:58;;;;;;;31.05;24.60;;;2.00;75.80;;;;;;5035571;29;20146;-66
2021/03/10 06:14:31;;;;;;;30.60;23.13;;;2.00;75.70;;;;;;5020340;29;20084;-65
2021/03/10 06:17:11;;;;;;;29.70;24.75;;;2.00;76.50;;;;;;5036535;29;20511;-66
2021/03/10 06:19:47;;;;;;;29.55;23.77;;;2.00;76.60;;;;;;5035530;29;20049;-65
2021/03/10 06:22:19;;;;;;;32.85;23.48;;;1.90;77.20;;;;;;5037018;29;20089;-66
2021/03/10 06:25:00;;;;;;;30.67;23.95;;;1.90;76.80;;;;;;5037081;29;20148;-66
2021/03/10 06:27:31;;;;;;;;;;;2.00;76.60;;;;;;5036887;29;20041;-66
2021/03/10 06:30:03;;;;;;;30.08;22.35;;;2.10;77.00;;;;;;5036565;29;19935;-66
2021/03/10 06:32:40;;;;;;;29.35;21.83;;;2.10;76.70;;;;;;5034904;29;20093;-65
2021/03/10 06:35:12;;;;;;;29.35;22.42;;;2.20;76.50;;;;;;5035792;29;20527;-66
2021/03/10 06:37:44;;;;;;;33.40;24.85;;;2.30;76.60;;;;;;5032628;29;20041;-67
2021/03/10 06:40:18;;;;;;;29.95;22.33;;;2.30;76.20;;;;;;5020330;29;20056;-67
2021/03/10 06:42:55;;;;;;;33.25;24.55;;;2.40;75.70;;;;;;5035100;29;20060;-66
2021/03/10 06:45:31;;;;;;;27.95;22.50;;;2.40;75.90;;;;;;5016418;29;20097;-67
2021/03/10 06:48:03;;;;;;;29.45;21.60;;;2.40;76.00;;;;;;5036755;29;20067;-66
2021/03/10 06:50:37;;;;;;;29.92;22.27;;;2.50;75.50;;;;;;5030899;29;20067;-67
2021/03/10 06:53:09;;;;;;;26.80;21.00;;;2.50;75.30;;;;;;5036639;29;20068;-68
2021/03/10 06:55:45;;;;;;;29.98;23.30;;;2.60;75.50;;;;;;5011916;29;20053;-66
2021/03/10 06:58:23;;;;;;;25.17;20.63;;;2.60;75.40;;;;;;5036710;29;20045;-66
2021/03/10 07:01:02;;;;;;;27.95;20.33;;;2.60;75.80;;;;;;5010431;29;20130;-66
2021/03/10 07:03:34;;;;;;;24.75;20.60;;;2.60;75.30;;;;;;5027162;29;20037;-65
2021/03/10 07:06:07;;;;;;;24.77;20.80;;;2.60;75.30;;;;;;5039122;29;20049;-66
2021/03/10 07:08:40;;;;;;;26.95;22.48;;;2.60;75.30;;;;;;5041772;29;20052;-66
2021/03/10 07:11:14;;;;;;;24.52;20.50;;;2.70;75.50;;;;;;5016005;29;20148;-66
2021/03/10 07:13:46;;;;;;;24.88;21.60;;;2.80;75.40;;;;;;5041948;29;20479;-67
2021/03/10 07:16:19;;;;;;;22.58;18.88;;;2.80;75.20;;;;;;5023029;29;20758;-67
2021/03/10 07:18:51;;;;;;;21.73;19.08;;;2.80;74.90;;;;;;5040196;29;20120;-66
2021/03/10 07:21:30;;;;;;;23.55;20.02;;;2.90;74.90;;;;;;5037780;29;20148;-66
2021/03/10 07:24:07;;;;;;;22.02;19.50;;;2.90;75.40;;;;;;5038514;29;20152;-67
2021/03/10 07:26:43;;;;;;;24.23;20.05;;;2.90;75.90;;;;;;5039049;29;20157;-67
2021/03/10 07:29:16;;;;;;;24.98;20.48;;;2.90;76.20;;;;;;5039099;29;20910;-66
2021/03/10 07:31:58;;;;;;;24.77;20.92;;;3.00;76.00;;;;;;5039539;29;20170;-67
2021/03/10 07:34:30;;;;;;;22.48;19.77;;;3.10;75.80;;;;;;5039351;29;20571;-66
2021/03/10 07:37:12;;;;;;;24.55;20.35;;;3.20;75.50;;;;;;5040378;29;20080;-66
2021/03/10 07:39:44;;;;;;;25.23;19.75;;;3.30;75.10;;;;;;5036382;29;20066;-66
2021/03/10 07:42:18;;;;;;;24.55;20.42;;;3.30;75.40;;;;;;5040001;29;20049;-67
2021/03/10 07:44:57;;;;;;;29.33;20.08;;;3.40;74.80;;;;;;5041310;29;20093;-66
2021/03/10 07:47:29;;;;;;;22.52;19.55;;;3.50;75.00;;;;;;5041678;29;20126;-67
2021/03/10 07:50:02;;;;;;;22.52;19.27;;;3.50;74.20;;;;;;5013370;29;20476;-69
2021/03/10 07:52:33;;;;;;;22.15;19.50;;;3.50;73.80;;;;;;5022855;29;20415;-67
2021/03/10 07:55:06;;;;;;;23.88;19.75;;;3.60;74.00;;;;;;5040088;29;20045;-66
2021/03/10 07:57:55;;;;;;;23.35;20.55;;;3.60;73.70;;;;;;5014413;29;20045;-66
2021/03/10 08:00:38;;;;;;;22.88;19.52;;;3.70;73.30;;;;;;5040004;29;20120;-66
2021/03/10 08:03:10;;;;;;;22.80;20.08;;;3.80;72.80;;;;;;5041950;29;20104;-66
2021/03/10 08:05:41;;;;;;;24.13;20.25;;;3.80;72.30;;;;;;5039796;29;20106;-66
2021/03/10 08:08:14;;;;;;;24.88;20.38;;;3.80;72.40;;;;;;5041063;29;20055;-66
2021/03/10 08:11:07;;;;;;;23.80;20.60;;;3.80;72.10;;;;;;5026891;29;20061;-66
2021/03/10 08:13:41;;;;;;;25.27;20.80;;;3.90;72.00;;;;;;5040704;29;20527;-65
2021/03/10 08:16:12;;;;;;;28.70;22.83;;;4.00;72.00;;;;;;5039441;29;20057;-67
2021/03/10 08:18:47;;;;;;;39.05;29.60;;;4.10;71.60;;;;;;5040001;29;20119;-66
2021/03/10 08:21:19;;;;;;;49.28;34.17;;;4.10;71.00;;;;;;5037312;29;20049;-65
2021/03/10 08:23:50;;;;;;;73.03;43.42;;;4.10;70.90;;;;;;5023650;29;20048;-65
2021/03/10 08:26:22;;;;;;;37.13;26.60;;;4.10;71.00;;;;;;5006646;29;20464;-66
2021/03/10 08:28:53;;;;;;;29.33;23.70;;;4.20;71.40;;;;;;5023709;29;20496;-66
2021/03/10 08:31:25;;;;;;;23.80;20.45;;;4.20;71.10;;;;;;5040741;29;20073;-67
2021/03/10 08:33:56;;;;;;;24.13;19.35;;;4.10;71.30;;;;;;5014862;29;20056;-67
2021/03/10 08:36:32;;;;;;;22.27;19.25;;;4.10;71.20;;;;;;5039171;29;20053;-66
2021/03/10 08:39:09;;;;;;;24.08;20.27;;;4.20;71.40;;;;;;5039406;29;20045;-67
2021/03/10 08:41:52;;;;;;;23.70;20.67;;;4.20;71.40;;;;;;5039490;29;20156;-66
2021/03/10 08:44:25;;;;;;;25.95;22.30;;;4.30;70.80;;;;;;5039709;29;20123;-66
2021/03/10 08:46:56;;;;;;;31.65;25.67;;;4.40;71.20;;;;;;5015072;29;20124;-66
2021/03/10 08:49:31;;;;;;;22.88;19.25;;;4.50;71.20;;;;;;5040724;29;20041;-66
2021/03/10 08:52:08;;;;;;;21.90;18.25;;;4.60;69.60;;;;;;5038283;29;20056;-67
2021/03/10 08:54:51;;;;;;;21.92;18.60;;;4.70;69.10;;;;;;5039131;29;20044;-67
2021/03/10 08:57:31;;;;;;;21.83;18.55;;;4.80;67.90;;;;;;5038073;29;20072;-66
2021/03/10 09:00:07;;;;;;;19.30;17.20;;;4.90;69.30;;;;;;5013634;29;20418;-68
2021/03/10 09:02:49;;;;;;;20.77;17.77;;;5.10;67.60;;;;;;5023073;29;20059;-66
2021/03/10 09:05:28;;;;;;;22.40;18.73;;;5.10;67.50;;;;;;5023778;29;20037;-66
2021/03/10 09:08:06;;;;;;;22.63;19.63;;;5.30;67.90;;;;;;5022451;29;20049;-67
2021/03/10 09:10:48;;;;;;;23.17;20.58;;;5.30;67.60;;;;;;5040247;29;20056;-66
2021/03/10 09:13:32;;;;;;;22.33;19.58;;;5.30;67.40;;;;;;5021481;29;20052;-66
2021/03/10 09:16:11;;;;;;;22.77;20.13;;;5.30;66.80;;;;;;5034054;29;20052;-68
2021/03/10 09:19:00;;;;;;;23.45;19.95;;;5.30;67.20;;;;;;5022786;29;20105;-67
2021/03/10 09:21:41;;;;;;;22.27;19.08;;;5.40;67.00;;;;;;5021083;29;20668;-67
2021/03/10 09:24:19;;;;;;;22.52;19.05;;;5.40;67.10;;;;;;5011292;29;20057;-67
2021/03/10 09:26:54;;;;;;;17.88;16.02;;;5.50;67.10;;;;;;5022029;29;20503;-67
2021/03/10 09:29:28;;;;;;;17.17;14.93;;;5.60;65.20;;;;;;5022412;29;20052;-66
2021/03/10 09:31:59;;;;;;;15.80;14.23;;;5.60;63.00;;;;;;5039917;29;20046;-66
2021/03/10 09:34:37;;;;;;;15.00;13.40;;;5.40;61.30;;;;;;5021768;29;20056;-66
2021/03/10 09:37:13;;;;;;;15.80;13.90;;;5.40;62.20;;;;;;5007430;29;20049;-67
2021/03/10 09:39:50;;;;;;;15.25;13.45;;;5.40;63.60;;;;;;5009668;29;20452;-67
2021/03/10 09:42:30;;;;;;;15.38;13.88;;;5.50;61.60;;;;;;5021159;29;20609;-66
2021/03/10 09:45:25;;;;;;;17.05;15.25;;;5.40;60.90;;;;;;5022689;29;20041;-66
2021/03/10 09:48:18;;;;;;;20.75;17.52;;;5.50;62.30;;;;;;5018286;29;20060;-66
2021/03/10 09:51:08;;;;;;;19.10;17.10;;;5.50;64.20;;;;;;5021544;29;20048;-66
2021/03/10 09:53:46;;;;;;;22.45;16.85;;;5.60;64.20;;;;;;5037174;29;20052;-67
2021/03/10 09:56:23;;;;;;;19.98;17.25;;;5.70;63.90;;;;;;5020545;29;20080;-66
2021/03/10 09:59:02;;;;;;;18.10;16.20;;;5.80;64.40;;;;;;5037305;29;20072;-66
2021/03/10 10:01:46;;;;;;;18.02;15.93;;;5.90;63.30;;;;;;5036725;29;20042;-66
2021/03/10 10:04:29;;;;;;;17.25;15.45;;;5.90;64.00;;;;;;5037627;29;20515;-66
2021/03/10 10:07:06;;;;;;;18.73;16.73;;;6.00;63.80;;;;;;5036326;29;20045;-67
2021/03/10 10:09:45;;;;;;;18.80;15.40;;;6.10;63.30;;;;;;5017279;29;20063;-67
2021/03/10 10:12:24;;;;;;;19.05;16.60;;;6.20;62.70;;;;;;5036166;29;20058;-66
2021/03/10 10:15:09;;;;;;;19.63;17.58;;;6.30;63.30;;;;;;5020200;29;20049;-66
2021/03/10 10:17:51;;;;;;;18.83;16.92;;;6.40;62.60;;;;;;5022627;29;20052;-68
2021/03/10 10:20:26;;;;;;;17.93;16.03;;;6.50;61.80;;;;;;5020248;29;20063;-67
2021/03/10 10:22:57;;;;;;;16.80;15.05;;;6.70;61.90;;;;;;5020809;29;20827;-68
2021/03/10 10:25:39;;;;;;;17.67;15.93;;;6.80;60.80;;;;;;5015552;29;20040;-67
2021/03/10 10:28:16;;;;;;;16.73;15.07;;;7.00;59.40;;;;;;5020596;29;20057;-67
2021/03/10 10:30:49;;;;;;;16.38;14.73;;;7.10;59.60;;;;;;5020248;29;20043;-67
2021/03/10 10:33:21;;;;;;;15.45;13.95;;;7.20;57.10;;;;;;5020885;29;20088;-66
2021/03/10 10:35:57;;;;;;;14.95;13.55;;;7.10;57.00;;;;;;5006266;29;20131;-67
2021/03/10 10:38:29;;;;;;;14.55;13.15;;;7.10;53.00;;;;;;5009237;29;20511;-66
2021/03/10 10:41:05;;;;;;;14.23;12.85;;;7.00;53.10;;;;;;5020310;29;20056;-67
2021/03/10 10:43:36;;;;;;;14.02;12.73;;;6.80;49.60;;;;;;5037266;29;20503;-66
2021/03/10 10:46:12;;;;;;;13.93;12.73;;;7.10;50.50;;;;;;5019372;29;20178;-66
2021/03/10 10:48:50;;;;;;;14.82;13.43;;;7.20;49.50;;;;;;5020975;29;20762;-66
2021/03/10 10:51:31;;;;;;;14.50;13.10;;;7.10;48.40;;;;;;5016714;29;20049;-67
2021/03/10 10:54:12;;;;;;;14.60;13.20;;;7.10;48.10;;;;;;5020625;29;20063;-66
2021/03/10 10:56:45;;;;;;;13.85;12.65;;;7.30;48.10;;;;;;5018990;29;20049;-67
2021/03/10 10:59:31;;;;;;;14.98;13.68;;;7.50;44.70;;;;;;5007368;29;20104;-67
2021/03/10 11:02:08;;;;;;;14.30;13.00;;;7.70;48.50;;;;;;5020878;29;20152;-67
2021/03/10 11:04:43;;;;;;;15.25;13.70;;;7.70;44.80;;;;;;5021446;29;20140;-67
2021/03/10 11:07:19;;;;;;;14.80;13.50;;;7.80;46.20;;;;;;5033865;29;20056;-67
2021/03/10 11:09:50;;;;;;;15.98;14.57;;;7.80;44.30;;;;;;5020660;29;20132;-66
2021/03/10 11:12:25;;;;;;;15.65;14.25;;;8.00;43.90;;;;;;5010607;29;20140;-66
2021/03/10 11:15:04;;;;;;;15.65;14.25;;;8.20;42.50;;;;;;5035887;29;20049;-67
2021/03/10 11:17:54;;;;;;;14.80;13.55;;;8.30;45.60;;;;;;5019714;29;20057;-66
2021/03/10 11:20:28;;;;;;;14.88;13.48;;;8.40;44.70;;;;;;5006250;29;20941;-67
2021/03/10 11:23:00;;;;;;;15.65;14.25;;;8.40;43.10;;;;;;5021114;29;20132;-67
2021/03/10 11:25:32;;;;;;;16.05;14.52;;;8.50;43.40;;;;;;5018599;29;20411;-68
2021/03/10 11:28:07;;;;;;;14.20;13.00;;;8.50;43.10;;;;;;5020535;29;20499;-66
2021/03/10 11:30:41;;;;;;;14.38;13.13;;;8.30;40.10;;;;;;5019458;29;20054;-69
2021/03/10 11:33:15;;;;;;;13.98;12.77;;;8.20;41.80;;;;;;5020620;29;20064;-66
2021/03/10 11:35:50;;;;;;;14.02;12.68;;;8.10;42.10;;;;;;5012135;29;20041;-66
2021/03/10 11:38:21;;;;;;;14.25;13.05;;;8.00;40.80;;;;;;5036751;29;20052;-66
2021/03/10 11:40:56;;;;;;;14.00;12.80;;;7.80;42.30;;;;;;5035936;29;20078;-66
2021/03/10 11:43:28;;;;;;;14.25;13.05;;;7.80;42.40;;;;;;5036027;29;20122;-66
2021/03/10 11:46:13;;;;;;;13.57;12.38;;;8.10;40.40;;;;;;5037298;29;20049;-66
2021/03/10 11:48:44;;;;;;;13.60;12.40;;;8.10;41.00;;;;;;5040878;29;20055;-67
2021/03/10 11:51:15;;;;;;;13.57;12.38;;;8.00;41.40;;;;;;5040195;29;20053;-66
2021/03/10 11:53:48;;;;;;;13.57;12.38;;;7.90;41.80;;;;;;5040965;29;20136;-67
2021/03/10 11:56:20;;;;;;;13.30;12.10;;;7.90;41.90;;;;;;5039390;29;20057;-67
2021/03/10 11:58:51;;;;;;;13.57;12.38;;;7.90;42.40;;;;;;5040166;29;20045;-66
2021/03/10 12:01:33;;;;;;;13.80;12.60;;;7.80;42.10;;;;;;5023182;29;20460;-67
2021/03/10 12:04:07;;;;;;;13.93;12.73;;;7.90;42.70;;;;;;5036973;29;20571;-66
2021/03/10 12:06:53;;;;;;;14.50;13.20;;;8.10;42.80;;;;;;5021855;29;20049;-67
2021/03/10 12:09:25;;;;;;;14.35;13.15;;;8.30;42.30;;;;;;5039483;29;20128;-67
2021/03/10 12:11:56;;;;;;;15.10;13.80;;;8.60;43.10;;;;;;5036115;29;20072;-69
2021/03/10 12:14:32;;;;;;;14.35;13.15;;;8.70;40.20;;;;;;5022489;29;20139;-68
2021/03/10 12:17:03;;;;;;;15.02;13.63;;;8.70;41.10;;;;;;5038214;29;20048;-67
2021/03/10 12:19:35;;;;;;;15.77;14.38;;;8.90;40.00;;;;;;5023704;29;20060;-67
2021/03/10 12:22:08;;;;;;;15.18;13.88;;;8.70;40.30;;;;;;5038500;29;20041;-67
2021/03/10 12:24:44;;;;;;;15.00;13.60;;;8.80;41.10;;;;;;5038859;29;20064;-67
2021/03/10 12:27:23;;;;;;;15.25;13.88;;;8.90;39.40;;;;;;5038782;29;20048;-67
2021/03/10 12:30:01;;;;;;;15.35;14.05;;;8.90;39.20;;;;;;5023704;29;20055;-67
2021/03/10 12:32:35;;;;;;;15.95;14.55;;;8.80;38.60;;;;;;5023469;29;20041;-69
2021/03/10 12:35:08;;;;;;;15.85;14.45;;;8.80;40.20;;;;;;5038561;29;20542;-68
2021/03/10 12:37:41;;;;;;;15.23;13.82;;;8.80;39.60;;;;;;5037921;29;20045;-68
2021/03/10 12:40:13;;;;;;;15.38;13.98;;;8.70;39.00;;;;;;5038294;29;20037;-67
2021/03/10 12:42:45;;;;;;;15.43;14.02;;;8.60;40.50;;;;;;5036598;29;20049;-68
2021/03/10 12:45:17;;;;;;;15.02;13.73;;;8.60;40.40;;;;;;5039164;29;20049;-67
2021/03/10 12:47:49;;;;;;;15.20;13.80;;;8.30;40.90;;;;;;5022656;29;20056;-65
2021/03/10 12:50:20;;;;;;;15.20;13.70;;;8.20;41.30;;;;;;5037813;29;20136;-65
2021/03/10 12:52:52;;;;;;;15.07;13.68;;;8.20;42.60;;;;;;5007745;29;20770;-66
2021/03/10 12:55:23;;;;;;;16.02;14.48;;;8.20;41.70;;;;;;5037197;29;20059;-68
2021/03/10 12:57:55;;;;;;;16.10;14.60;;;8.30;41.20;;;;;;5037313;29;20068;-68
2021/03/10 13:00:27;;;;;;;16.20;14.75;;;8.40;40.00;;;;;;5035558;29;20060;-67
2021/03/10 13:02:59;;;;;;;15.57;14.18;;;8.50;40.70;;;;;;5039008;29;20582;-68
2021/03/10 13:05:31;;;;;;;15.68;14.27;;;8.60;41.40;;;;;;5037222;29;20049;-67
2021/03/10 13:08:04;;;;;;;16.00;14.55;;;8.70;42.20;;;;;;5037546;29;20207;-68
2021/03/10 13:10:36;;;;;;;15.60;14.10;;;8.90;40.90;;;;;;5039545;29;20049;-67
2021/03/10 13:13:26;;;;;;;15.00;13.60;;;8.80;39.90;;;;;;5040529;29;20116;-68
2021/03/10 13:15:58;;;;;;;15.82;14.32;;;8.90;41.90;;;;;;5038173;29;20108;-68